createdAt,value
2017-12-25T00:00:02.287Z,1013.1
2017-12-25T00:00:43.097Z,1013.08
2017-12-25T00:01:23.572Z,1012.95
2017-12-25T00:02:03.987Z,1013.05
2017-12-25T00:02:44.408Z,1013.08
2017-12-25T00:03:24.989Z,1013.03
2017-12-25T00:04:05.288Z,1013.02
2017-12-25T00:04:45.782Z,1012.98
2017-12-25T00:05:26.183Z,1012.97
2017-12-25T00:06:06.679Z,1012.96
2017-12-25T00:06:47.073Z,1012.99
2017-12-25T00:07:27.533Z,1012.98
2017-12-25T00:08:07.959Z,1013.02
2017-12-25T00:08:48.793Z,1012.98
2017-12-25T00:09:29.102Z,1012.99
2017-12-25T00:10:09.484Z,1013
2017-12-25T00:10:52.780Z,1013.03
2017-12-25T00:11:33.072Z,1013.01
2017-12-25T00:12:13.375Z,1013.03
2017-12-25T00:12:54.261Z,1013.01
2017-12-25T00:13:34.821Z,1012.97
2017-12-25T00:14:16.076Z,1012.99
2017-12-25T00:14:57.311Z,1013.02
2017-12-25T00:15:40.209Z,1013.04
2017-12-25T00:16:20.279Z,1013.09
2017-12-25T00:17:00.727Z,1013.09
2017-12-25T00:17:41.211Z,1013.06
2017-12-25T00:18:21.974Z,1013.04
2017-12-25T00:19:02.812Z,1013.03
2017-12-25T00:19:43.706Z,1013.11
2017-12-25T00:20:24.168Z,1013.02
2017-12-25T00:21:04.558Z,1013.07
2017-12-25T00:21:45.077Z,1013.04
2017-12-25T00:22:25.767Z,1013
2017-12-25T00:23:06.318Z,1012.98
2017-12-25T00:23:47.222Z,1013.09
2017-12-25T00:24:27.831Z,1012.95
2017-12-25T00:25:08.357Z,1013.01
2017-12-25T00:25:49.843Z,1013.04
2017-12-25T00:26:30.441Z,1013.01
2017-12-25T00:27:11.176Z,1013.01
2017-12-25T00:27:51.542Z,1012.97
2017-12-25T00:28:33.166Z,1012.97
2017-12-25T00:29:13.984Z,1012.93
2017-12-25T00:29:54.843Z,1012.97
2017-12-25T00:32:15.720Z,1012.92
2017-12-25T00:32:56.945Z,1012.96
2017-12-25T00:33:37.347Z,1012.86
2017-12-25T00:34:17.816Z,1012.73
2017-12-25T00:34:58.257Z,1012.85
2017-12-25T00:35:39.604Z,1012.94
2017-12-25T00:36:19.994Z,1012.94
2017-12-25T00:37:00.991Z,1012.99
2017-12-25T00:37:41.760Z,1012.91
2017-12-25T00:38:22.156Z,1012.93
2017-12-25T00:39:02.569Z,1012.93
2017-12-25T00:39:42.954Z,1012.84
2017-12-25T00:40:23.755Z,1012.87
2017-12-25T00:41:04.146Z,1012.85
2017-12-25T00:41:44.670Z,1012.8
2017-12-25T00:45:42.744Z,1012.97
2017-12-25T00:46:22.839Z,1012.97
2017-12-25T00:47:04.195Z,1012.98
2017-12-25T00:47:44.646Z,1012.96
2017-12-25T00:48:25.076Z,1012.99
2017-12-25T00:49:05.446Z,1012.99
2017-12-25T00:49:47.054Z,1012.97
2017-12-25T00:50:27.323Z,1012.95
2017-12-25T00:51:07.826Z,1013
2017-12-25T00:51:48.126Z,1012.99
2017-12-25T00:52:28.569Z,1012.98
2017-12-25T00:53:09.013Z,1012.92
2017-12-25T00:53:49.645Z,1012.95
2017-12-25T00:54:30.073Z,1012.92
2017-12-25T00:55:11.193Z,1012.9
2017-12-25T00:55:52.810Z,1012.85
2017-12-25T00:56:33.592Z,1012.87
2017-12-25T00:57:13.988Z,1012.85
2017-12-25T00:57:54.484Z,1012.82
2017-12-25T00:58:34.792Z,1012.78
2017-12-25T00:59:15.332Z,1012.85
2017-12-25T00:59:57.108Z,1012.86
2017-12-25T01:00:37.127Z,1012.79
2017-12-25T01:01:17.601Z,1012.83
2017-12-25T01:03:12.490Z,1012.75
2017-12-25T01:03:54.024Z,1012.78
2017-12-25T01:04:35.095Z,1012.81
2017-12-25T01:05:15.337Z,1012.83
2017-12-25T01:05:55.919Z,1012.74
2017-12-25T01:06:36.322Z,1012.86
2017-12-25T01:07:16.647Z,1012.8
2017-12-25T01:07:57.965Z,1012.78
2017-12-25T01:08:38.431Z,1012.76
2017-12-25T01:09:19.358Z,1012.75
2017-12-25T01:10:00.832Z,1012.8
2017-12-25T01:10:41.413Z,1012.81
2017-12-25T01:11:21.647Z,1012.76
2017-12-25T01:12:02.148Z,1012.83
2017-12-25T01:12:42.554Z,1012.78
2017-12-25T01:13:24.111Z,1012.78
2017-12-25T01:14:03.700Z,1012.75
2017-12-25T01:14:44.634Z,1012.74
2017-12-25T01:15:26.322Z,1012.78
2017-12-25T01:16:07.365Z,1012.76
2017-12-25T01:16:49.472Z,1012.76
2017-12-25T01:17:30.034Z,1012.77
2017-12-25T01:20:05.073Z,1012.73
2017-12-25T01:20:45.345Z,1012.71
2017-12-25T01:21:26.239Z,1012.71
2017-12-25T01:22:06.272Z,1012.7
2017-12-25T01:22:46.796Z,1012.71
2017-12-25T01:23:27.237Z,1012.67
2017-12-25T01:24:07.918Z,1012.69
2017-12-25T01:24:48.168Z,1012.72
2017-12-25T01:25:28.536Z,1012.66
2017-12-25T01:26:08.798Z,1012.67
2017-12-25T01:26:49.321Z,1012.67
2017-12-25T01:27:30.112Z,1012.63
2017-12-25T01:28:10.513Z,1012.65
2017-12-25T01:28:50.904Z,1012.65
2017-12-25T01:29:31.325Z,1012.66
2017-12-25T01:30:11.850Z,1012.64
2017-12-25T01:30:52.234Z,1012.62
2017-12-25T01:31:32.958Z,1012.6
2017-12-25T01:32:16.418Z,1012.59
2017-12-25T01:32:56.838Z,1012.6
2017-12-25T01:33:37.252Z,1012.58
2017-12-25T01:34:18.021Z,1012.63
2017-12-25T01:34:58.501Z,1012.55
2017-12-25T01:35:38.850Z,1012.59
2017-12-25T01:36:21.202Z,1012.59
2017-12-25T01:37:02.386Z,1012.57
2017-12-25T01:37:43.040Z,1012.62
2017-12-25T01:38:23.415Z,1012.61
2017-12-25T01:39:03.781Z,1012.61
2017-12-25T01:39:45.015Z,1012.63
2017-12-25T01:43:42.225Z,1012.62
2017-12-25T01:44:26.021Z,1012.58
2017-12-25T01:45:06.506Z,1012.53
2017-12-25T01:45:48.408Z,1012.56
2017-12-25T01:46:29.044Z,1012.56
2017-12-25T01:49:01.234Z,1012.54
2017-12-25T01:49:41.677Z,1012.52
2017-12-25T01:50:22.363Z,1012.52
2017-12-25T01:51:02.701Z,1012.52
2017-12-25T01:51:43.780Z,1012.42
2017-12-25T01:52:24.326Z,1012.5
2017-12-25T01:53:04.768Z,1012.53
2017-12-25T01:53:45.165Z,1012.48
2017-12-25T01:54:25.557Z,1012.47
2017-12-25T01:55:06.018Z,1012.51
2017-12-25T01:55:48.719Z,1012.42
2017-12-25T01:56:29.745Z,1012.48
2017-12-25T01:57:10.046Z,1012.47
2017-12-25T01:57:50.484Z,1012.5
2017-12-25T01:58:30.943Z,1012.49
2017-12-25T01:59:11.382Z,1012.48
2017-12-25T01:59:51.735Z,1012.46
2017-12-25T02:00:32.929Z,1012.49
2017-12-25T02:01:13.275Z,1012.46
2017-12-25T02:01:53.803Z,1012.49
2017-12-25T02:02:35.517Z,1012.48
2017-12-25T02:03:15.955Z,1012.49
2017-12-25T02:03:56.357Z,1012.5
2017-12-25T02:04:36.726Z,1012.51
2017-12-25T02:05:17.578Z,1012.52
2017-12-25T02:05:57.596Z,1012.54
2017-12-25T02:06:38.093Z,1012.51
2017-12-25T02:07:18.734Z,1012.5
2017-12-25T02:07:59.126Z,1012.46
2017-12-25T02:08:39.381Z,1012.45
2017-12-25T02:09:19.814Z,1012.47
2017-12-25T02:10:00.196Z,1012.51
2017-12-25T02:10:41.055Z,1012.47
2017-12-25T02:11:21.516Z,1012.48
2017-12-25T02:12:01.932Z,1012.5
2017-12-25T02:12:42.414Z,1012.46
2017-12-25T02:13:22.840Z,1012.48
2017-12-25T02:14:04.637Z,1012.49
2017-12-25T02:14:44.745Z,1012.43
2017-12-25T02:15:25.090Z,1012.48
2017-12-25T02:16:06.042Z,1012.4
2017-12-25T02:16:46.886Z,1012.3
2017-12-25T02:17:28.353Z,1012.4
2017-12-25T02:18:08.547Z,1012.42
2017-12-25T02:18:49.271Z,1012.42
2017-12-25T02:19:30.025Z,1012.35
2017-12-25T02:20:10.444Z,1012.34
2017-12-25T02:20:50.920Z,1012.35
2017-12-25T02:21:31.370Z,1012.36
2017-12-25T02:22:11.851Z,1012.37
2017-12-25T02:22:52.749Z,1012.29
2017-12-25T02:23:33.295Z,1012.33
2017-12-25T02:24:13.526Z,1012.3
2017-12-25T02:24:53.879Z,1012.26
2017-12-25T02:25:35.770Z,1012.34
2017-12-25T02:26:16.374Z,1012.33
2017-12-25T02:26:57.057Z,1012.34
2017-12-25T02:27:37.644Z,1012.32
2017-12-25T02:28:18.230Z,1012.28
2017-12-25T02:28:58.783Z,1012.28
2017-12-25T02:29:39.520Z,1012.28
2017-12-25T02:30:20.978Z,1012.28
2017-12-25T02:31:01.546Z,1012.19
2017-12-25T02:31:42.101Z,1012.27
2017-12-25T02:32:22.416Z,1012.26
2017-12-25T02:33:03.097Z,1012.22
2017-12-25T02:35:07.722Z,1012.22
2017-12-25T02:37:22.857Z,1012.2
2017-12-25T02:38:02.911Z,1012.17
2017-12-25T02:38:43.802Z,1012.19
2017-12-25T02:39:24.044Z,1012.12
2017-12-25T02:40:04.460Z,1012.18
2017-12-25T02:40:45.294Z,1012.15
2017-12-25T02:41:25.870Z,1012.18
2017-12-25T02:42:06.453Z,1012.17
2017-12-25T02:42:46.738Z,1012.19
2017-12-25T02:43:27.124Z,1012.14
2017-12-25T02:44:07.820Z,1012.2
2017-12-25T02:44:48.896Z,1012.1
2017-12-25T02:45:29.501Z,1012.13
2017-12-25T02:46:09.767Z,1012.14
2017-12-25T02:46:50.321Z,1012.13
2017-12-25T02:47:30.697Z,1012.15
2017-12-25T02:48:11.218Z,1012.15
2017-12-25T02:48:51.588Z,1012.14
2017-12-25T02:49:32.083Z,1012.13
2017-12-25T02:50:12.370Z,1012.15
2017-12-25T02:50:52.804Z,1012.12
2017-12-25T02:51:33.214Z,1012.14
2017-12-25T02:52:13.664Z,1012.12
2017-12-25T02:52:54.004Z,1012.13
2017-12-25T02:53:34.403Z,1012.05
2017-12-25T02:54:14.810Z,1012.03
2017-12-25T02:54:55.194Z,1012.04
2017-12-25T02:55:35.628Z,1012.04
2017-12-25T02:56:15.989Z,1012.04
2017-12-25T02:56:56.933Z,1012.05
2017-12-25T02:57:37.340Z,1012.05
2017-12-25T02:58:17.811Z,1012.02
2017-12-25T02:58:58.541Z,1012.01
2017-12-25T02:59:38.798Z,1012.02
2017-12-25T03:00:19.251Z,1012
2017-12-25T03:00:59.768Z,1012.01
2017-12-25T03:01:40.171Z,1012.01
2017-12-25T03:02:20.722Z,1011.99
2017-12-25T03:03:01.961Z,1012.01
2017-12-25T03:05:19.133Z,1011.99
2017-12-25T03:05:59.641Z,1011.99
2017-12-25T03:06:40.010Z,1012
2017-12-25T03:07:20.397Z,1011.98
2017-12-25T03:08:00.786Z,1011.99
2017-12-25T03:08:41.274Z,1012.02
2017-12-25T03:09:21.615Z,1012.01
2017-12-25T03:10:02.112Z,1011.98
2017-12-25T03:10:43.085Z,1012
2017-12-25T03:11:24.054Z,1011.94
2017-12-25T03:12:05.185Z,1011.97
2017-12-25T03:12:45.915Z,1011.97
2017-12-25T03:13:26.332Z,1011.98
2017-12-25T03:14:06.810Z,1012.01
2017-12-25T03:14:47.185Z,1011.95
2017-12-25T03:15:27.581Z,1011.96
2017-12-25T03:16:07.998Z,1011.94
2017-12-25T03:16:48.394Z,1011.9
2017-12-25T03:17:28.767Z,1011.9
2017-12-25T03:18:09.196Z,1011.91
2017-12-25T03:18:50.865Z,1011.9
2017-12-25T03:19:31.189Z,1011.87
2017-12-25T03:20:14.239Z,1011.92
2017-12-25T03:20:56.629Z,1011.92
2017-12-25T03:21:34.010Z,1011.88
2017-12-25T03:22:14.674Z,1011.85
2017-12-25T03:22:54.954Z,1011.87
2017-12-25T03:23:35.497Z,1011.85
2017-12-25T03:24:15.829Z,1011.84
2017-12-25T03:24:56.287Z,1011.84
2017-12-25T03:25:36.965Z,1011.86
2017-12-25T03:26:17.363Z,1011.79
2017-12-25T03:26:57.725Z,1011.82
2017-12-25T03:27:40.779Z,1011.75
2017-12-25T03:28:20.060Z,1011.76
2017-12-25T03:29:00.575Z,1011.74
2017-12-25T03:29:41.219Z,1011.71
2017-12-25T03:30:21.423Z,1011.72
2017-12-25T03:31:02.282Z,1011.72
2017-12-25T03:31:42.328Z,1011.7
2017-12-25T03:32:22.918Z,1011.66
2017-12-25T03:33:03.163Z,1011.68
2017-12-25T03:33:43.624Z,1011.66
2017-12-25T03:34:24.176Z,1011.66
2017-12-25T03:35:04.393Z,1011.62
2017-12-25T03:35:44.958Z,1011.65
2017-12-25T03:36:25.254Z,1011.67
2017-12-25T03:37:06.019Z,1011.66
2017-12-25T03:37:46.483Z,1011.53
2017-12-25T03:38:27.144Z,1011.61
2017-12-25T03:39:07.773Z,1011.62
2017-12-25T03:39:48.243Z,1011.63
2017-12-25T03:40:28.571Z,1011.62
2017-12-25T03:41:09.217Z,1011.59
2017-12-25T03:41:49.580Z,1011.6
2017-12-25T03:42:30.003Z,1011.59
2017-12-25T03:43:10.380Z,1011.56
2017-12-25T03:43:50.863Z,1011.54
2017-12-25T03:44:31.286Z,1011.56
2017-12-25T03:45:11.636Z,1011.56
2017-12-25T03:45:52.189Z,1011.57
2017-12-25T03:46:32.587Z,1011.54
2017-12-25T03:47:12.998Z,1011.53
2017-12-25T03:47:53.328Z,1011.52
2017-12-25T03:48:33.778Z,1011.49
2017-12-25T03:49:14.217Z,1011.52
2017-12-25T03:49:54.805Z,1011.47
2017-12-25T03:50:35.000Z,1011.5
2017-12-25T03:51:15.292Z,1011.46
2017-12-25T03:51:55.760Z,1011.47
2017-12-25T03:52:36.279Z,1011.45
2017-12-25T03:53:16.554Z,1011.42
2017-12-25T03:53:56.985Z,1011.4
2017-12-25T03:54:37.355Z,1011.4
2017-12-25T03:55:17.829Z,1011.41
2017-12-25T03:55:58.198Z,1011.41
2017-12-25T03:56:38.708Z,1011.41
2017-12-25T03:57:19.076Z,1011.41
2017-12-25T03:57:59.392Z,1011.37
2017-12-25T03:58:40.067Z,1011.39
2017-12-25T03:59:20.268Z,1011.34
2017-12-25T04:00:00.649Z,1011.31
2017-12-25T04:00:41.064Z,1011.33
2017-12-25T04:01:21.539Z,1011.29
2017-12-25T04:02:02.527Z,1011.28
2017-12-25T04:41:58.489Z,1010.97
2017-12-25T04:42:38.933Z,1010.92
2017-12-25T04:43:19.290Z,1010.93
2017-12-25T04:43:59.721Z,1010.95
2017-12-25T04:44:40.119Z,1010.95
2017-12-25T04:45:20.685Z,1010.94
2017-12-25T04:46:00.950Z,1010.92
2017-12-25T04:46:41.344Z,1010.9
2017-12-25T04:47:21.739Z,1010.88
2017-12-25T04:48:02.148Z,1010.9
2017-12-25T04:48:43.167Z,1010.93
2017-12-25T04:49:23.476Z,1010.89
2017-12-25T04:50:04.109Z,1010.94
2017-12-25T04:50:44.843Z,1010.89
2017-12-25T04:51:24.980Z,1010.94
2017-12-25T04:52:05.396Z,1010.93
2017-12-25T04:52:45.843Z,1010.89
2017-12-25T04:53:26.314Z,1010.89
2017-12-25T04:54:06.708Z,1010.9
2017-12-25T04:54:47.161Z,1010.88
2017-12-25T04:55:27.628Z,1010.88
2017-12-25T04:56:08.287Z,1010.88
2017-12-25T04:56:48.690Z,1010.87
2017-12-25T04:57:29.489Z,1010.89
2017-12-25T04:58:09.876Z,1010.88
2017-12-25T04:58:50.325Z,1010.94
2017-12-25T04:59:30.943Z,1010.88
2017-12-25T05:00:11.866Z,1010.87
2017-12-25T05:00:52.479Z,1010.87
2017-12-25T05:01:34.123Z,1010.82
2017-12-25T05:02:14.799Z,1010.82
2017-12-25T05:02:55.252Z,1010.85
2017-12-25T05:03:35.681Z,1010.84
2017-12-25T05:04:18.274Z,1010.84
2017-12-25T05:04:58.631Z,1010.86
2017-12-25T05:05:39.241Z,1010.83
2017-12-25T05:06:20.122Z,1010.81
2017-12-25T05:07:00.860Z,1010.8
2017-12-25T05:07:41.389Z,1010.8
2017-12-25T05:08:21.765Z,1010.82
2017-12-25T05:09:02.088Z,1010.85
2017-12-25T05:09:42.560Z,1010.82
2017-12-25T05:10:22.919Z,1010.8
2017-12-25T05:11:03.279Z,1010.81
2017-12-25T05:11:43.672Z,1010.76
2017-12-25T05:12:24.223Z,1010.76
2017-12-25T05:13:04.619Z,1010.76
2017-12-25T05:13:45.087Z,1010.74
2017-12-25T05:14:25.464Z,1010.7
2017-12-25T05:15:05.929Z,1010.72
2017-12-25T05:15:46.305Z,1010.75
2017-12-25T05:16:26.772Z,1010.77
2017-12-25T05:17:07.174Z,1010.7
2017-12-25T05:17:47.566Z,1010.73
2017-12-25T05:18:27.945Z,1010.7
2017-12-25T05:19:08.581Z,1010.73
2017-12-25T05:19:48.966Z,1010.73
2017-12-25T05:20:29.488Z,1010.72
2017-12-25T05:21:09.993Z,1010.7
2017-12-25T05:21:50.941Z,1010.72
2017-12-25T05:22:32.175Z,1010.71
2017-12-25T05:23:12.516Z,1010.67
2017-12-25T05:23:53.668Z,1010.72
2017-12-25T05:24:33.809Z,1010.77
2017-12-25T05:25:14.431Z,1010.76
2017-12-25T05:25:54.901Z,1010.73
2017-12-25T05:26:35.166Z,1010.74
2017-12-25T05:27:15.579Z,1010.78
2017-12-25T05:27:56.074Z,1010.76
2017-12-25T05:28:36.533Z,1010.78
2017-12-25T05:29:16.988Z,1010.73
2017-12-25T05:29:57.380Z,1010.78
2017-12-25T05:30:37.732Z,1010.78
2017-12-25T05:31:18.154Z,1010.82
2017-12-25T05:31:58.597Z,1010.75
2017-12-25T05:32:39.074Z,1010.74
2017-12-25T05:33:19.379Z,1010.79
2017-12-25T05:33:59.765Z,1010.77
2017-12-25T05:34:40.591Z,1010.73
2017-12-25T05:35:20.625Z,1010.69
2017-12-25T05:36:01.283Z,1010.67
2017-12-25T05:36:41.835Z,1010.72
2017-12-25T05:37:22.075Z,1010.67
2017-12-25T05:38:02.566Z,1010.64
2017-12-25T05:40:20.649Z,1010.66
2017-12-25T05:41:01.332Z,1010.63
2017-12-25T05:41:41.748Z,1010.66
2017-12-25T05:42:22.389Z,1010.62
2017-12-25T05:43:02.646Z,1010.64
2017-12-25T05:43:42.982Z,1010.64
2017-12-25T05:44:23.461Z,1010.6
2017-12-25T05:45:04.324Z,1010.51
2017-12-25T05:45:45.313Z,1010.58
2017-12-25T05:46:25.763Z,1010.58
2017-12-25T05:47:06.232Z,1010.59
2017-12-25T05:47:47.109Z,1010.61
2017-12-25T05:48:27.780Z,1010.59
2017-12-25T05:49:08.755Z,1010.6
2017-12-25T05:49:49.425Z,1010.55
2017-12-25T05:50:30.115Z,1010.59
2017-12-25T05:51:10.747Z,1010.53
2017-12-25T05:51:51.192Z,1010.54
2017-12-25T05:52:31.610Z,1010.53
2017-12-25T05:53:12.086Z,1010.53
2017-12-25T05:53:53.007Z,1010.53
2017-12-25T05:54:33.582Z,1010.55
2017-12-25T05:55:14.412Z,1010.51
2017-12-25T05:55:54.852Z,1010.52
2017-12-25T05:56:35.623Z,1010.53
2017-12-25T05:57:16.992Z,1010.53
2017-12-25T05:57:58.276Z,1010.53
2017-12-25T05:58:39.288Z,1010.53
2017-12-25T05:59:20.624Z,1010.5
2017-12-25T06:00:00.548Z,1010.51
2017-12-25T06:00:40.942Z,1010.51
2017-12-25T06:01:21.512Z,1010.46
2017-12-25T06:02:01.861Z,1010.51
2017-12-25T06:02:42.674Z,1010.51
2017-12-25T06:03:23.359Z,1010.51
2017-12-25T06:04:03.733Z,1010.54
2017-12-25T06:04:44.276Z,1010.49
2017-12-25T06:06:42.012Z,1010.49
2017-12-25T06:07:23.077Z,1010.48
2017-12-25T06:08:03.802Z,1010.48
2017-12-25T06:08:43.868Z,1010.5
2017-12-25T06:09:24.906Z,1010.48
2017-12-25T06:10:06.002Z,1010.5
2017-12-25T06:10:46.319Z,1010.48
2017-12-25T06:11:26.731Z,1010.48
2017-12-25T06:12:07.271Z,1010.42
2017-12-25T06:12:47.715Z,1010.47
2017-12-25T06:13:28.094Z,1010.45
2017-12-25T06:14:08.494Z,1010.48
2017-12-25T06:14:48.970Z,1010.46
2017-12-25T06:15:29.300Z,1010.49
2017-12-25T06:16:09.854Z,1010.45
2017-12-25T06:16:50.783Z,1010.5
2017-12-25T06:17:30.623Z,1010.48
2017-12-25T06:18:11.062Z,1010.47
2017-12-25T06:18:51.284Z,1010.46
2017-12-25T06:19:31.811Z,1010.47
2017-12-25T06:20:12.100Z,1010.46
2017-12-25T06:20:52.490Z,1010.48
2017-12-25T06:21:32.840Z,1010.46
2017-12-25T06:22:13.251Z,1010.48
2017-12-25T06:22:53.628Z,1010.45
2017-12-25T06:23:34.541Z,1010.47
2017-12-25T06:24:14.933Z,1010.47
2017-12-25T06:24:55.328Z,1010.45
2017-12-25T06:25:35.713Z,1010.42
2017-12-25T06:26:16.056Z,1010.44
2017-12-25T06:26:56.466Z,1010.46
2017-12-25T06:27:36.888Z,1010.45
2017-12-25T06:28:17.288Z,1010.46
2017-12-25T06:28:57.807Z,1010.44
2017-12-25T06:29:38.566Z,1010.43
2017-12-25T06:30:18.615Z,1010.39
2017-12-25T06:30:59.079Z,1010.43
2017-12-25T06:31:39.364Z,1010.42
2017-12-25T06:32:20.083Z,1010.42
2017-12-25T06:33:01.141Z,1010.42
2017-12-25T06:33:41.594Z,1010.44
2017-12-25T06:34:22.243Z,1010.41
2017-12-25T06:35:02.670Z,1010.4
2017-12-25T06:35:43.181Z,1010.4
2017-12-25T06:36:23.474Z,1010.35
2017-12-25T06:37:04.308Z,1010.32
2017-12-25T06:37:45.168Z,1010.35
2017-12-25T06:38:25.696Z,1010.33
2017-12-25T06:39:06.718Z,1010.37
2017-12-25T06:39:47.637Z,1010.32
2017-12-25T06:40:27.949Z,1010.32
2017-12-25T06:41:08.511Z,1010.28
2017-12-25T06:41:49.050Z,1010.28
2017-12-25T06:42:30.174Z,1010.3
2017-12-25T06:43:11.268Z,1010.28
2017-12-25T06:43:50.968Z,1010.29
2017-12-25T06:44:31.372Z,1010.27
2017-12-25T06:45:12.203Z,1010.28
2017-12-25T06:45:52.777Z,1010.29
2017-12-25T06:46:33.659Z,1010.27
2017-12-25T06:47:14.079Z,1010.24
2017-12-25T06:47:54.668Z,1010.22
2017-12-25T06:48:35.161Z,1010.26
2017-12-25T06:49:15.452Z,1010.21
2017-12-25T06:49:56.026Z,1010.25
2017-12-25T06:50:36.694Z,1010.23
2017-12-25T06:51:17.823Z,1010.19
2017-12-25T06:51:58.131Z,1010.24
2017-12-25T06:52:38.462Z,1010.26
2017-12-25T06:53:18.938Z,1010.25
2017-12-25T06:54:01.168Z,1010.26
2017-12-25T06:54:41.777Z,1010.3
2017-12-25T06:55:22.032Z,1010.26
2017-12-25T06:56:02.724Z,1010.22
2017-12-25T06:56:43.146Z,1010.26
2017-12-25T06:57:23.528Z,1010.22
2017-12-25T06:58:04.001Z,1010.22
2017-12-25T06:58:44.367Z,1010.19
2017-12-25T06:59:24.850Z,1010.2
2017-12-25T07:00:05.245Z,1010.21
2017-12-25T07:00:45.645Z,1010.19
2017-12-25T07:01:26.072Z,1010.2
2017-12-25T07:02:06.500Z,1010.2
2017-12-25T07:02:46.900Z,1010.17
2017-12-25T07:03:27.293Z,1010.15
2017-12-25T07:04:07.689Z,1010.11
2017-12-25T07:04:48.103Z,1010.12
2017-12-25T07:05:28.505Z,1010.11
2017-12-25T07:06:08.949Z,1010.11
2017-12-25T07:06:49.311Z,1010.1
2017-12-25T07:07:29.725Z,1010.1
2017-12-25T07:08:10.099Z,1010.08
2017-12-25T07:08:50.487Z,1010.1
2017-12-25T07:09:30.853Z,1010.08
2017-12-25T07:10:11.430Z,1010.06
2017-12-25T07:10:51.930Z,1010.04
2017-12-25T07:11:32.526Z,1010.04
2017-12-25T07:12:12.814Z,1009.97
2017-12-25T07:12:53.304Z,1009.97
2017-12-25T07:13:33.645Z,1009.99
2017-12-25T07:14:15.798Z,1009.98
2017-12-25T07:14:56.169Z,1009.94
2017-12-25T07:15:36.641Z,1009.93
2017-12-25T07:16:17.015Z,1009.96
2017-12-25T07:16:57.369Z,1009.96
2017-12-25T07:17:37.922Z,1009.95
2017-12-25T07:18:18.322Z,1009.97
2017-12-25T07:18:59.858Z,1009.84
2017-12-25T07:19:40.246Z,1009.93
2017-12-25T07:20:20.683Z,1009.95
2017-12-25T07:21:01.053Z,1009.89
2017-12-25T07:21:41.759Z,1009.94
2017-12-25T07:22:22.187Z,1009.91
2017-12-25T07:23:03.030Z,1009.92
2017-12-25T07:23:43.436Z,1009.87
2017-12-25T07:24:23.854Z,1009.93
2017-12-25T07:25:04.267Z,1009.89
2017-12-25T07:25:44.742Z,1009.88
2017-12-25T07:26:25.075Z,1009.83
2017-12-25T07:27:05.433Z,1009.9
2017-12-25T07:27:46.369Z,1009.81
2017-12-25T07:28:27.004Z,1009.87
2017-12-25T07:29:07.720Z,1009.82
2017-12-25T07:29:48.559Z,1009.82
2017-12-25T07:30:29.022Z,1009.84
2017-12-25T07:31:09.471Z,1009.85
2017-12-25T07:31:49.786Z,1009.83
2017-12-25T07:32:30.138Z,1009.8
2017-12-25T07:33:10.529Z,1009.81
2017-12-25T07:33:51.049Z,1009.78
2017-12-25T07:34:31.383Z,1009.82
2017-12-25T07:35:12.113Z,1009.79
2017-12-25T07:35:52.275Z,1009.77
2017-12-25T07:36:32.663Z,1009.79
2017-12-25T07:37:13.424Z,1009.81
2017-12-25T07:37:53.872Z,1009.81
2017-12-25T07:38:34.283Z,1009.77
2017-12-25T07:39:14.716Z,1009.8
2017-12-25T07:39:55.142Z,1009.79
2017-12-25T07:40:35.584Z,1009.8
2017-12-25T07:41:16.247Z,1009.82
2017-12-25T07:41:56.750Z,1009.78
2017-12-25T07:42:37.187Z,1009.8
2017-12-25T07:43:17.726Z,1009.8
2017-12-25T07:43:58.138Z,1009.82
2017-12-25T07:44:38.805Z,1009.69
2017-12-25T07:45:19.248Z,1009.71
2017-12-25T07:45:59.896Z,1009.73
2017-12-25T07:46:40.080Z,1009.76
2017-12-25T07:47:20.429Z,1009.71
2017-12-25T07:48:00.983Z,1009.75
2017-12-25T07:48:41.481Z,1009.74
2017-12-25T07:49:22.302Z,1009.74
2017-12-25T07:50:03.059Z,1009.7
2017-12-25T07:50:44.085Z,1009.67
2017-12-25T07:51:24.481Z,1009.65
2017-12-25T07:52:04.917Z,1009.7
2017-12-25T07:52:45.489Z,1009.7
2017-12-25T07:53:27.252Z,1009.69
2017-12-25T07:54:07.394Z,1009.67
2017-12-25T07:54:47.870Z,1009.7
2017-12-25T07:55:28.287Z,1009.72
2017-12-25T07:56:08.636Z,1009.74
2017-12-25T07:56:49.266Z,1009.78
2017-12-25T07:57:29.752Z,1009.79
2017-12-25T07:58:10.043Z,1009.69
2017-12-25T07:58:50.481Z,1009.61
2017-12-25T07:59:30.880Z,1009.7
2017-12-25T08:00:11.317Z,1009.71
2017-12-25T08:00:51.642Z,1009.71
2017-12-25T08:02:51.934Z,1009.75
2017-12-25T08:03:32.118Z,1009.74
2017-12-25T08:04:12.541Z,1009.69
2017-12-25T08:04:52.943Z,1009.77
2017-12-25T08:05:33.396Z,1009.73
2017-12-25T08:06:13.969Z,1009.74
2017-12-25T08:06:54.336Z,1009.78
2017-12-25T08:07:34.780Z,1009.72
2017-12-25T08:08:15.451Z,1009.69
2017-12-25T08:08:55.791Z,1009.69
2017-12-25T08:09:36.072Z,1009.69
2017-12-25T08:10:16.487Z,1009.68
2017-12-25T08:10:56.869Z,1009.65
2017-12-25T08:11:37.488Z,1009.65
2017-12-25T08:12:17.735Z,1009.64
2017-12-25T08:12:58.153Z,1009.63
2017-12-25T08:13:38.654Z,1009.66
2017-12-25T08:14:18.914Z,1009.67
2017-12-25T08:14:59.540Z,1009.64
2017-12-25T08:15:39.912Z,1009.63
2017-12-25T08:16:20.381Z,1009.6
2017-12-25T08:17:00.827Z,1009.62
2017-12-25T08:17:41.238Z,1009.65
2017-12-25T08:18:21.701Z,1009.65
2017-12-25T08:19:02.105Z,1009.62
2017-12-25T08:19:42.602Z,1009.65
2017-12-25T08:20:22.973Z,1009.64
2017-12-25T08:21:03.340Z,1009.66
2017-12-25T08:21:43.766Z,1009.69
2017-12-25T08:22:24.164Z,1009.63
2017-12-25T08:23:04.613Z,1009.67
2017-12-25T08:23:45.011Z,1009.63
2017-12-25T08:24:25.480Z,1009.65
2017-12-25T08:25:05.808Z,1009.61
2017-12-25T08:25:46.220Z,1009.6
2017-12-25T08:26:26.643Z,1009.61
2017-12-25T08:27:07.093Z,1009.61
2017-12-25T08:27:47.532Z,1009.58
2017-12-25T08:28:28.031Z,1009.6
2017-12-25T08:29:08.393Z,1009.57
2017-12-25T08:29:51.863Z,1009.53
2017-12-25T08:30:32.835Z,1009.58
2017-12-25T08:31:12.895Z,1009.5
2017-12-25T08:31:53.442Z,1009.56
2017-12-25T08:33:49.505Z,1009.53
2017-12-25T08:34:35.348Z,1009.5
2017-12-25T08:35:15.618Z,1009.53
2017-12-25T08:35:56.733Z,1009.48
2017-12-25T08:36:37.256Z,1009.45
2017-12-25T08:37:17.525Z,1009.48
2017-12-25T08:37:57.909Z,1009.47
2017-12-25T08:38:38.372Z,1009.48
2017-12-25T08:39:18.881Z,1009.5
2017-12-25T08:39:59.152Z,1009.49
2017-12-25T08:40:39.515Z,1009.49
2017-12-25T08:41:19.953Z,1009.48
2017-12-25T08:42:00.737Z,1009.52
2017-12-25T08:42:41.106Z,1009.5
2017-12-25T08:43:21.483Z,1009.48
2017-12-25T08:44:01.908Z,1009.48
2017-12-25T08:44:42.715Z,1009.45
2017-12-25T08:45:22.774Z,1009.45
2017-12-25T08:46:03.165Z,1009.47
2017-12-25T08:46:43.583Z,1009.39
2017-12-25T08:47:23.922Z,1009.44
2017-12-25T08:48:04.413Z,1009.42
2017-12-25T08:48:44.792Z,1009.42
2017-12-25T08:49:25.262Z,1009.4
2017-12-25T08:50:05.605Z,1009.41
2017-12-25T08:50:46.029Z,1009.44
2017-12-25T08:51:26.526Z,1009.45
2017-12-25T08:52:06.878Z,1009.42
2017-12-25T08:52:47.295Z,1009.42
2017-12-25T08:53:27.774Z,1009.48
2017-12-25T08:54:08.136Z,1009.45
2017-12-25T08:54:48.544Z,1009.48
2017-12-25T08:55:29.023Z,1009.51
2017-12-25T08:56:09.429Z,1009.51
2017-12-25T08:56:49.771Z,1009.54
2017-12-25T08:57:30.226Z,1009.49
2017-12-25T08:58:10.606Z,1009.49
2017-12-25T08:58:50.964Z,1009.47
2017-12-25T08:59:31.336Z,1009.47
2017-12-25T09:00:11.733Z,1009.49
2017-12-25T09:00:52.123Z,1009.5
2017-12-25T09:01:32.555Z,1009.48
2017-12-25T09:02:12.943Z,1009.47
2017-12-25T09:02:53.431Z,1009.5
2017-12-25T09:03:33.751Z,1009.49
2017-12-25T09:04:14.164Z,1009.5
2017-12-25T09:04:54.539Z,1009.51
2017-12-25T09:05:34.932Z,1009.51
2017-12-25T09:06:15.412Z,1009.56
2017-12-25T09:06:55.697Z,1009.51
2017-12-25T09:07:36.179Z,1009.53
2017-12-25T09:08:16.457Z,1009.55
2017-12-25T09:08:56.906Z,1009.55
2017-12-25T09:09:37.314Z,1009.53
2017-12-25T09:10:17.716Z,1009.51
2017-12-25T09:10:58.171Z,1009.53
2017-12-25T09:11:38.502Z,1009.52
2017-12-25T09:12:18.945Z,1009.53
2017-12-25T09:12:59.284Z,1009.52
2017-12-25T09:13:39.662Z,1009.56
2017-12-25T09:14:20.101Z,1009.52
2017-12-25T09:15:00.466Z,1009.56